Irene, South Dakota
Current Conditions -  °F | °C
As of 12:35 PM on Thursday 30 Oct 2014 (Local Time) from KYKN Reporting Station
Clear Clear  
Wind Chill: 52°   Ceiling: Unl
Heat Index: 52°   Visibility: 10mi
Dew Point: 39°   Wind: 23mph
Humidity: 62%   Direction: 310°NW
Pressure: 30.15"   Gusts: 28mph
Location:  43.08°N, 97.16°W
Report Text: KYKN 301735Z AUTO 31020G24KT 10SM CLR 11/04 A3015 RMK AO1
Loading
Personal Weather Stations






























Interactive Weather Map
Tropical Storm Tracking
New forecast layout! Learn more

10-Day Weather Forecast

Advertisements
Track Severe Weather on mobile